Time;durP1;ratioP1;P1;durP2;ratioP2;P2;SDS_P1;SDS_P2;PMS_P1;PMS_P2;Temp;Humidity;BMP_temperature;BMP_pressure;BME280_temperature;BME280_humidity;BME280_pressure;Samples;Min_cycle;Max_cycle;Signal;HPM_P1;HPM_P2
2023/01/21 00:00:24;;;;;;;1.60;1.50;;;22.20;59.10;;;;;;5004004;28;21041;-77
2023/01/21 00:02:51;;;;;;;4.95;1.92;;;22.30;59.00;;;;;;5004942;28;20225;-78
2023/01/21 00:05:19;;;;;;;2.25;1.48;;;22.30;59.60;;;;;;5004501;28;20197;-78
2023/01/21 00:07:46;;;;;;;2.03;1.75;;;22.30;59.20;;;;;;5005417;28;20203;-78
2023/01/21 00:10:13;;;;;;;2.33;2.13;;;22.20;59.30;;;;;;5001751;28;20851;-76
2023/01/21 00:17:52;;;;;;;2.75;2.10;;;21.90;58.60;;;;;;5245158;22;20245;-79
2023/01/21 00:20:21;;;;;;;2.40;2.20;;;21.90;59.00;;;;;;5015076;28;20578;-77
2023/01/21 00:22:47;;;;;;;4.75;2.58;;;22.00;58.90;;;;;;5015389;28;20862;-76
2023/01/21 00:25:14;;;;;;;2.20;2.00;;;22.10;58.90;;;;;;5014092;28;20203;-77
2023/01/21 00:27:41;;;;;;;1.90;1.70;;;22.20;58.90;;;;;;5016420;28;20245;-77
2023/01/21 00:30:09;;;;;;;2.15;1.95;;;22.20;59.40;;;;;;5013784;28;20248;-77
2023/01/21 00:32:36;;;;;;;3.22;2.38;;;22.20;58.80;;;;;;5017332;28;20728;-78
2023/01/21 00:35:03;;;;;;;2.15;2.05;;;22.20;58.80;;;;;;5016938;28;20199;-76
2023/01/21 00:37:31;;;;;;;2.40;2.20;;;22.20;58.80;;;;;;5017020;28;20207;-77
2023/01/21 00:39:58;;;;;;;2.20;2.05;;;22.20;58.80;;;;;;5015632;28;20207;-77
2023/01/21 00:42:26;;;;;;;2.20;2.00;;;22.20;58.80;;;;;;5014821;28;20574;-77
2023/01/21 00:44:53;;;;;;;2.08;1.70;;;22.30;58.80;;;;;;5014165;28;20207;-77
2023/01/21 00:47:20;;;;;;;2.63;1.80;;;22.30;59.40;;;;;;5014838;28;20211;-76
2023/01/21 00:49:46;;;;;;;1.80;1.70;;;22.20;59.20;;;;;;5013919;28;20222;-76
2023/01/21 00:52:14;;;;;;;4.17;2.20;;;22.30;59.10;;;;;;5013587;28;20226;-76
2023/01/21 00:54:43;;;;;;;3.45;1.98;;;22.30;59.20;;;;;;5017311;28;20451;-77
2023/01/21 00:57:13;;;;;;;2.40;1.90;;;22.30;59.10;;;;;;5015132;28;20299;-76
2023/01/21 00:59:40;;;;;;;2.17;2.00;;;22.30;59.20;;;;;;5014878;28;20215;-75
2023/01/21 01:02:07;;;;;;;2.38;2.15;;;22.30;59.20;;;;;;5016626;28;20203;-77
2023/01/21 01:04:34;;;;;;;2.97;2.15;;;22.20;59.20;;;;;;5016606;28;20207;-78
2023/01/21 01:07:01;;;;;;;1.98;1.60;;;22.20;59.20;;;;;;5018171;28;20665;-76
2023/01/21 01:09:28;;;;;;;2.65;2.03;;;22.20;59.20;;;;;;5016922;28;20231;-77
2023/01/21 01:11:56;;;;;;;2.08;1.98;;;22.20;59.20;;;;;;5017726;28;20231;-78
2023/01/21 01:14:23;;;;;;;1.73;1.63;;;22.20;59.20;;;;;;5017127;28;20200;-76
2023/01/21 01:16:50;;;;;;;1.50;1.40;;;22.20;59.20;;;;;;5016085;28;20741;-78
2023/01/21 01:19:17;;;;;;;2.20;2.00;;;22.20;59.20;;;;;;5014586;28;20212;-76
2023/01/21 01:21:44;;;;;;;2.03;1.65;;;22.20;59.30;;;;;;5014985;28;20192;-76
2023/01/21 01:24:11;;;;;;;3.45;1.60;;;22.20;59.20;;;;;;5015297;28;20208;-76
2023/01/21 01:26:39;;;;;;;2.05;1.95;;;22.20;59.20;;;;;;5016095;28;20216;-76
2023/01/21 01:29:07;;;;;;;3.08;1.75;;;22.20;59.20;;;;;;5015325;28;20676;-78
2023/01/21 01:31:34;;;;;;;1.75;1.60;;;22.20;59.20;;;;;;5014472;28;20694;-77
2023/01/21 01:34:01;;;;;;;2.50;2.30;;;22.20;59.20;;;;;;5014842;28;20514;-77
2023/01/21 01:36:27;;;;;;;2.63;2.33;;;22.20;59.20;;;;;;5018649;28;20211;-77
2023/01/21 01:38:55;;;;;;;2.05;1.95;;;22.20;59.20;;;;;;5018780;28;20203;-78
2023/01/21 01:41:24;;;;;;;1.95;1.75;;;22.20;59.20;;;;;;5020211;28;20241;-77
2023/01/21 01:43:53;;;;;;;2.53;1.90;;;22.20;59.20;;;;;;5018217;28;20234;-77
2023/01/21 01:46:23;;;;;;;2.53;1.90;;;22.20;59.20;;;;;;5017454;28;20204;-77
2023/01/21 01:48:55;;;;;;;2.05;1.70;;;22.20;59.20;;;;;;5019727;28;20209;-79
2023/01/21 01:51:26;;;;;;;2.30;1.75;;;22.20;59.10;;;;;;5020367;28;20600;-79
2023/01/21 01:53:53;;;;;;;2.10;1.90;;;22.20;59.20;;;;;;5015672;28;20678;-77
2023/01/21 01:56:20;;;;;;;2.17;1.98;;;22.20;59.20;;;;;;5018717;28;20207;-77
2023/01/21 01:58:48;;;;;;;1.52;1.42;;;22.20;59.20;;;;;;5019864;28;20931;-78
2023/01/21 02:01:15;;;;;;;2.00;1.90;;;22.20;59.20;;;;;;5018415;28;20691;-77
2023/01/21 02:03:49;;;;;;;2.40;2.20;;;22.20;59.10;;;;;;5021209;28;20196;-77
2023/01/21 02:06:17;;;;;;;1.88;1.52;;;22.20;59.20;;;;;;5020485;28;20191;-77
2023/01/21 02:08:46;;;;;;;2.10;1.80;;;22.20;59.20;;;;;;5019423;28;20227;-77
2023/01/21 02:11:14;;;;;;;2.08;1.98;;;22.20;59.20;;;;;;5019042;28;20223;-77
2023/01/21 02:13:43;;;;;;;3.05;2.15;;;22.20;59.20;;;;;;5017234;28;20742;-78
2023/01/21 02:16:47;;;;;;;2.00;1.90;;;22.20;59.20;;;;;;5016963;28;20707;-78
2023/01/21 02:20:05;;;;;;;2.30;2.10;;;22.20;59.10;;;;;;5021055;28;20692;-78
2023/01/21 02:22:41;;;;;;;2.15;1.95;;;22.20;59.10;;;;;;4957472;28;20213;-79
2023/01/21 02:25:58;;;;;;;1.70;1.60;;;22.20;59.10;;;;;;4957573;28;20219;-78
2023/01/21 02:29:10;;;;;;;1.58;1.48;;;22.20;59.10;;;;;;4923244;29;20201;-79
2023/01/21 02:31:57;;;;;;;2.08;1.88;;;22.20;59.00;;;;;;5018508;28;20202;-78
2023/01/21 02:34:33;;;;;;;2.47;2.28;;;22.20;59.10;;;;;;5019178;28;20208;-78
2023/01/21 02:37:10;;;;;;;1.77;1.67;;;22.20;59.10;;;;;;5015761;28;20213;-78
2023/01/21 02:39:54;;;;;;;1.90;1.80;;;22.20;59.00;;;;;;5018500;28;20699;-74
2023/01/21 02:42:28;;;;;;;1.85;1.67;;;22.20;59.00;;;;;;5019613;28;20283;-76
2023/01/21 02:45:04;;;;;;;2.20;2.00;;;22.30;59.00;;;;;;5017095;28;20195;-75
2023/01/21 02:47:37;;;;;;;1.77;1.30;;;22.20;58.90;;;;;;5016533;28;20207;-78
2023/01/21 02:50:12;;;;;;;1.63;1.52;;;22.20;59.00;;;;;;5018208;28;20211;-72
2023/01/21 02:52:38;;;;;;;2.50;2.30;;;22.20;59.00;;;;;;5016507;28;20222;-75
2023/01/21 02:55:12;;;;;;;1.70;1.60;;;22.30;59.00;;;;;;5018606;28;20690;-75
2023/01/21 02:57:44;;;;;;;2.00;1.80;;;22.20;59.00;;;;;;5018631;28;21891;-74
2023/01/21 03:00:16;;;;;;;2.10;1.90;;;22.20;58.90;;;;;;5015766;28;20609;-75
2023/01/21 03:03:22;;;;;;;1.70;1.60;;;22.30;59.00;;;;;;5017982;28;20663;-75
2023/01/21 03:06:28;;;;;;;1.80;1.70;;;22.30;59.10;;;;;;5018607;28;20211;-77
2023/01/21 03:08:59;;;;;;;2.17;1.58;;;22.30;59.00;;;;;;5016048;28;20209;-77
2023/01/21 03:11:26;;;;;;;1.90;1.70;;;22.30;59.60;;;;;;5017247;28;20203;-75
2023/01/21 03:16:59;;;;;;;1.83;1.60;;;22.20;59.00;;;;;;5016446;28;20243;-76
2023/01/21 03:19:35;;;;;;;1.67;1.58;;;22.30;59.00;;;;;;5017845;28;20209;-76
2023/01/21 03:22:08;;;;;;;1.70;1.60;;;22.30;59.00;;;;;;5017671;28;20200;-76
2023/01/21 03:24:36;;;;;;;1.90;1.80;;;22.20;59.00;;;;;;5017533;28;20196;-75
2023/01/21 03:27:06;;;;;;;1.95;1.85;;;22.30;59.00;;;;;;5017265;28;20656;-74
2023/01/21 03:29:34;;;;;;;1.63;1.52;;;22.20;59.00;;;;;;5015785;28;20293;-74
2023/01/21 03:32:07;;;;;;;1.38;1.27;;;22.30;59.00;;;;;;5018119;28;20213;-75
2023/01/21 03:34:40;;;;;;;1.70;1.60;;;22.20;59.00;;;;;;5015310;28;20515;-75
2023/01/21 03:37:11;;;;;;;1.52;1.42;;;22.20;59.00;;;;;;5016590;28;20556;-75
2023/01/21 03:39:44;;;;;;;1.90;1.70;;;22.20;59.00;;;;;;5016888;28;20206;-78
2023/01/21 03:42:12;;;;;;;1.75;1.65;;;22.30;59.00;;;;;;5017286;28;20695;-79
2023/01/21 03:44:39;;;;;;;2.30;2.10;;;22.20;59.00;;;;;;5015857;28;20206;-79
2023/01/21 03:47:13;;;;;;;1.60;1.50;;;22.20;59.00;;;;;;5017652;28;20204;-78
2023/01/21 03:49:43;;;;;;;1.70;1.60;;;22.20;59.00;;;;;;5019231;28;20231;-78
2023/01/21 03:52:13;;;;;;;1.60;1.50;;;22.20;59.00;;;;;;5015694;28;20230;-78
2023/01/21 03:54:40;;;;;;;1.55;1.45;;;22.20;59.00;;;;;;5017292;28;20544;-79
2023/01/21 03:57:07;;;;;;;2.15;2.00;;;22.20;59.00;;;;;;5017853;28;20202;-77
2023/01/21 03:59:34;;;;;;;1.40;1.27;;;22.30;59.00;;;;;;5015159;28;20557;-78
2023/01/21 04:02:01;;;;;;;1.70;1.60;;;22.30;59.00;;;;;;5017883;28;20567;-77
2023/01/21 04:04:27;;;;;;;1.97;1.77;;;22.20;58.90;;;;;;5017440;28;20211;-79
2023/01/21 04:06:54;;;;;;;1.60;1.50;;;22.30;59.00;;;;;;5017735;28;20463;-80
2023/01/21 04:09:22;;;;;;;1.60;1.50;;;22.30;59.00;;;;;;5016178;28;20210;-79
2023/01/21 04:11:49;;;;;;;1.60;1.50;;;22.30;59.00;;;;;;5018407;28;20215;-80
2023/01/21 04:14:16;;;;;;;1.73;1.50;;;22.20;58.90;;;;;;5018296;28;20226;-80
2023/01/21 04:16:42;;;;;;;1.70;1.60;;;22.20;59.00;;;;;;5016809;28;20230;-80
2023/01/21 04:19:09;;;;;;;1.60;1.50;;;22.20;59.00;;;;;;5017314;28;20577;-79
2023/01/21 04:21:36;;;;;;;1.73;1.63;;;22.20;58.90;;;;;;5018231;28;20211;-79
2023/01/21 04:24:03;;;;;;;1.58;1.48;;;22.20;58.90;;;;;;5017310;28;20207;-79
2023/01/21 04:26:31;;;;;;;1.52;1.42;;;22.30;59.00;;;;;;5016810;28;20207;-79
2023/01/21 04:28:58;;;;;;;1.98;1.75;;;22.30;58.90;;;;;;5016380;28;20218;-80
2023/01/21 04:31:25;;;;;;;1.60;1.50;;;22.20;58.90;;;;;;5017403;28;20575;-79
2023/01/21 04:33:51;;;;;;;1.60;1.50;;;22.30;59.00;;;;;;5014813;28;20220;-79
2023/01/21 04:36:18;;;;;;;1.75;1.63;;;22.30;58.90;;;;;;5018455;28;20654;-78
2023/01/21 04:38:45;;;;;;;1.48;1.38;;;22.30;58.90;;;;;;5018053;28;20208;-78
2023/01/21 04:41:11;;;;;;;2.10;1.65;;;22.20;58.90;;;;;;5018604;28;20670;-80
2023/01/21 04:43:40;;;;;;;2.00;1.90;;;22.20;58.90;;;;;;5016571;28;20194;-78
2023/01/21 04:46:07;;;;;;;1.77;1.65;;;22.30;59.00;;;;;;5014355;28;20744;-78
2023/01/21 04:48:33;;;;;;;1.70;1.60;;;22.30;58.90;;;;;;5016790;28;20211;-78
2023/01/21 04:51:00;;;;;;;1.80;1.70;;;22.30;58.90;;;;;;5017476;28;20203;-78
2023/01/21 04:53:27;;;;;;;1.58;1.48;;;22.30;58.90;;;;;;5015829;28;20226;-78
2023/01/21 04:55:54;;;;;;;1.92;1.83;;;22.20;58.90;;;;;;5016918;28;20203;-77
2023/01/21 04:58:21;;;;;;;2.03;1.83;;;22.20;58.90;;;;;;5016880;28;20657;-78
2023/01/21 05:00:49;;;;;;;1.60;1.50;;;22.20;58.90;;;;;;5015776;28;20230;-78
2023/01/21 05:03:16;;;;;;;1.80;1.70;;;22.30;59.00;;;;;;5015315;28;20235;-79
2023/01/21 05:05:43;;;;;;;1.67;1.58;;;22.20;58.90;;;;;;5017520;28;20209;-79
2023/01/21 05:08:10;;;;;;;1.60;1.50;;;22.20;58.90;;;;;;5017781;28;20203;-78
2023/01/21 05:10:36;;;;;;;1.65;1.55;;;22.20;58.90;;;;;;5016360;28;20546;-79
2023/01/21 05:13:03;;;;;;;1.30;1.20;;;22.20;58.90;;;;;;5015644;28;20223;-79
2023/01/21 05:15:31;;;;;;;1.63;1.52;;;22.20;58.90;;;;;;5017209;28;20210;-79
2023/01/21 05:18:00;;;;;;;2.10;1.90;;;22.20;58.80;;;;;;5017259;28;20254;-77
2023/01/21 05:20:27;;;;;;;1.80;1.70;;;22.20;58.90;;;;;;5015800;28;20439;-78
2023/01/21 05:22:53;;;;;;;1.40;1.30;;;22.30;58.90;;;;;;5016055;28;20840;-78
2023/01/21 05:25:20;;;;;;;1.60;1.50;;;22.20;58.90;;;;;;5016416;28;20204;-78
2023/01/21 05:27:52;;;;;;;1.20;1.10;;;22.20;58.90;;;;;;5018170;28;20226;-78
2023/01/21 05:30:19;;;;;;;1.40;1.30;;;22.20;58.80;;;;;;5016156;28;20206;-78
2023/01/21 05:32:50;;;;;;;1.40;1.30;;;22.20;58.90;;;;;;5015238;28;20246;-78
2023/01/21 05:35:19;;;;;;;1.70;1.30;;;22.20;58.90;;;;;;5016408;28;20198;-78
2023/01/21 05:37:46;;;;;;;1.52;1.42;;;22.20;58.80;;;;;;5017003;28;20198;-77
2023/01/21 05:40:14;;;;;;;1.58;1.48;;;22.20;58.90;;;;;;5014470;28;20655;-78
2023/01/21 05:42:41;;;;;;;1.63;1.52;;;22.20;58.80;;;;;;5016653;28;20257;-77
2023/01/21 05:45:09;;;;;;;1.63;1.52;;;22.20;58.80;;;;;;5015466;28;20594;-77
2023/01/21 05:47:36;;;;;;;1.60;1.50;;;22.20;59.40;;;;;;5018499;28;20203;-79
2023/01/21 05:50:03;;;;;;;1.67;1.45;;;22.20;58.80;;;;;;5016899;28;20206;-79
2023/01/21 05:52:31;;;;;;;1.92;1.70;;;22.20;58.80;;;;;;5014574;28;20215;-78
2023/01/21 05:54:57;;;;;;;1.60;1.40;;;22.20;58.80;;;;;;5015144;28;20200;-78
2023/01/21 05:57:24;;;;;;;1.40;1.30;;;22.20;58.80;;;;;;5016768;28;20211;-78
2023/01/21 05:59:51;;;;;;;1.77;1.67;;;22.20;58.80;;;;;;5015626;28;20223;-79
2023/01/21 06:02:18;;;;;;;1.80;1.70;;;22.20;58.80;;;;;;5016255;28;20434;-75
2023/01/21 06:04:44;;;;;;;1.63;1.52;;;22.20;58.80;;;;;;5015861;28;20199;-79
2023/01/21 06:07:11;;;;;;;1.67;1.58;;;22.20;58.80;;;;;;5015835;28;20199;-77
2023/01/21 06:09:39;;;;;;;1.30;1.20;;;22.20;58.90;;;;;;5014862;28;20670;-79
2023/01/21 06:12:06;;;;;;;1.20;1.10;;;22.10;59.00;;;;;;5018269;28;20578;-79
2023/01/21 06:14:33;;;;;;;1.48;1.38;;;22.00;59.10;;;;;;5015024;28;20258;-78
2023/01/21 06:16:59;;;;;;;1.65;1.55;;;21.90;59.10;;;;;;5016214;28;20238;-78
2023/01/21 06:19:26;;;;;;;2.55;1.55;;;21.80;59.30;;;;;;5015850;28;20543;-78
2023/01/21 06:21:53;;;;;;;1.52;1.35;;;21.80;59.50;;;;;;5018159;28;20701;-78
2023/01/21 06:24:20;;;;;;;1.70;1.55;;;21.60;59.40;;;;;;5019861;28;20202;-79
2023/01/21 06:26:48;;;;;;;1.75;1.65;;;21.60;59.50;;;;;;5020001;28;20660;-79
2023/01/21 06:29:14;;;;;;;1.85;1.55;;;21.50;59.60;;;;;;5017702;28;20622;-79
2023/01/21 06:31:41;;;;;;;1.90;1.80;;;21.60;59.60;;;;;;5019476;28;20290;-79
2023/01/21 06:34:11;;;;;;;1.60;1.50;;;21.70;59.50;;;;;;5017847;28;20537;-78
2023/01/21 06:36:39;;;;;;;1.38;1.27;;;21.80;59.30;;;;;;5020357;28;20620;-78
2023/01/21 06:39:08;;;;;;;1.55;1.45;;;21.90;59.10;;;;;;5018567;28;20206;-78
2023/01/21 06:41:35;;;;;;;1.75;1.65;;;22.00;59.00;;;;;;5018921;28;20199;-78
2023/01/21 06:44:03;;;;;;;1.38;1.27;;;22.10;59.00;;;;;;5017244;28;20581;-79
2023/01/21 06:46:30;;;;;;;1.70;1.60;;;22.10;58.90;;;;;;5018871;28;20592;-78
2023/01/21 06:48:57;;;;;;;1.48;1.38;;;22.20;58.80;;;;;;5020740;28;20234;-78
2023/01/21 06:51:24;;;;;;;2.15;1.95;;;22.30;58.70;;;;;;5021177;28;20223;-79
2023/01/21 06:53:50;;;;;;;1.85;1.75;;;22.30;58.60;;;;;;5017499;28;20491;-78
2023/01/21 06:56:17;;;;;;;1.60;1.50;;;22.40;58.60;;;;;;5019793;28;20200;-78
2023/01/21 06:58:44;;;;;;;1.50;1.40;;;22.40;58.50;;;;;;5020072;28;20207;-78
2023/01/21 07:01:12;;;;;;;1.60;1.45;;;22.40;58.50;;;;;;5019304;28;20207;-78
2023/01/21 07:03:39;;;;;;;1.63;1.50;;;22.40;58.40;;;;;;5017468;28;20659;-79
2023/01/21 07:06:06;;;;;;;1.50;1.35;;;22.40;58.40;;;;;;5017390;28;20735;-77
2023/01/21 07:08:33;;;;;;;1.40;1.30;;;22.50;58.40;;;;;;5018879;28;20207;-77
2023/01/21 07:11:00;;;;;;;1.83;1.45;;;22.40;58.40;;;;;;5018569;28;20447;-80
2023/01/21 07:13:27;;;;;;;1.50;1.30;;;22.40;58.40;;;;;;5017007;28;20226;-79
2023/01/21 07:15:58;;;;;;;1.40;1.30;;;22.40;58.40;;;;;;5016940;28;20218;-78
2023/01/21 07:18:26;;;;;;;1.40;1.30;;;22.40;58.40;;;;;;5019419;28;20207;-77
2023/01/21 07:20:53;;;;;;;1.50;1.40;;;22.40;58.50;;;;;;5018101;28;20202;-79
2023/01/21 07:23:20;;;;;;;1.35;1.25;;;22.40;58.60;;;;;;5019039;28;20203;-79
2023/01/21 07:25:46;;;;;;;1.67;1.58;;;22.30;58.50;;;;;;5019642;28;20585;-77
2023/01/21 07:28:13;;;;;;;1.50;1.40;;;22.30;58.50;;;;;;5018344;28;20206;-77
2023/01/21 07:30:40;;;;;;;1.65;1.55;;;22.30;58.60;;;;;;5015834;28;20203;-79
2023/01/21 07:33:07;;;;;;;1.60;1.50;;;22.30;58.60;;;;;;5016648;28;20210;-78
2023/01/21 07:35:36;;;;;;;1.95;1.20;;;22.30;58.60;;;;;;5019479;28;20615;-78
2023/01/21 07:38:02;;;;;;;1.48;1.38;;;22.30;58.60;;;;;;5015844;28;20211;-79
2023/01/21 07:40:29;;;;;;;1.70;1.60;;;22.20;58.60;;;;;;5019033;28;20226;-77
2023/01/21 07:42:56;;;;;;;1.95;1.60;;;22.20;58.60;;;;;;5018056;28;20214;-78
2023/01/21 07:45:24;;;;;;;1.67;1.50;;;22.20;58.70;;;;;;5017644;28;20577;-78
2023/01/21 07:47:50;;;;;;;1.52;1.35;;;22.20;58.70;;;;;;5018149;28;20788;-80
2023/01/21 07:50:17;;;;;;;2.45;1.20;;;22.20;58.80;;;;;;5019220;28;20210;-79
2023/01/21 07:52:45;;;;;;;1.60;1.50;;;22.10;58.60;;;;;;5014070;28;20207;-78
2023/01/21 07:55:12;;;;;;;3.70;1.50;;;22.10;58.70;;;;;;5014169;28;20230;-79
2023/01/21 07:57:39;;;;;;;1.58;1.48;;;22.20;58.80;;;;;;5014724;28;20208;-78
2023/01/21 08:00:07;;;;;;;2.30;1.60;;;22.20;58.80;;;;;;5017814;28;20200;-78
2023/01/21 08:02:34;;;;;;;1.40;1.30;;;22.20;58.80;;;;;;5018225;28;20290;-77
2023/01/21 08:05:00;;;;;;;1.63;1.52;;;22.20;58.80;;;;;;5017632;28;20658;-76
2023/01/21 08:07:32;;;;;;;1.33;1.23;;;22.20;58.80;;;;;;5015783;28;20212;-83
2023/01/21 08:10:00;;;;;;;2.30;1.52;;;22.20;59.00;;;;;;5018222;28;20231;-82
2023/01/21 08:12:27;;;;;;;2.00;1.70;;;22.30;59.00;;;;;;5015271;28;20523;-83
2023/01/21 08:14:54;;;;;;;1.58;1.40;;;22.40;58.90;;;;;;5019749;28;20999;-83
2023/01/21 08:17:20;;;;;;;1.67;1.58;;;22.50;58.90;;;;;;5015715;28;20705;-81
2023/01/21 08:19:47;;;;;;;1.77;1.65;;;22.60;58.80;;;;;;5014611;28;20200;-81
2023/01/21 08:22:14;;;;;;;1.85;1.52;;;22.60;58.70;;;;;;5015659;28;20205;-80
2023/01/21 08:24:41;;;;;;;5.15;1.42;;;22.70;58.60;;;;;;5015779;28;20286;-80
2023/01/21 08:27:09;;;;;;;1.40;1.30;;;22.80;58.60;;;;;;5016527;28;20211;-80
2023/01/21 08:29:36;;;;;;;1.80;1.70;;;22.80;58.50;;;;;;5016162;28;20281;-81
2023/01/21 08:32:02;;;;;;;1.77;1.67;;;22.90;58.50;;;;;;5013645;28;20282;-78
2023/01/21 08:34:29;;;;;;;1.70;1.60;;;22.90;58.40;;;;;;5012949;28;20581;-78
2023/01/21 08:36:56;;;;;;;1.40;1.30;;;22.90;58.40;;;;;;5016438;28;20671;-78
2023/01/21 08:39:23;;;;;;;1.30;1.20;;;22.90;58.40;;;;;;5013198;28;20199;-79
2023/01/21 08:41:50;;;;;;;1.60;1.50;;;23.00;58.40;;;;;;5015856;28;20207;-78
2023/01/21 08:44:18;;;;;;;1.53;1.30;;;23.00;58.40;;;;;;5016821;28;20210;-80
2023/01/21 08:46:45;;;;;;;1.63;1.38;;;23.00;58.40;;;;;;5016517;28;20473;-80
2023/01/21 08:49:11;;;;;;;1.53;1.43;;;23.00;58.50;;;;;;5016963;28;20204;-80
2023/01/21 08:51:38;;;;;;;1.30;1.20;;;23.00;58.70;;;;;;5016297;28;20932;-80
2023/01/21 08:54:05;;;;;;;1.90;1.77;;;22.80;58.00;;;;;;5015400;28;20226;-79
2023/01/21 08:56:32;;;;;;;1.90;1.80;;;22.80;57.40;;;;;;5017832;28;20211;-81
2023/01/21 08:58:59;;;;;;;1.83;1.73;;;22.70;57.30;;;;;;5017606;28;20635;-80
2023/01/21 09:01:28;;;;;;;2.00;1.90;;;22.60;57.40;;;;;;5017134;28;20216;-80
2023/01/21 09:03:55;;;;;;;1.88;1.77;;;22.70;57.40;;;;;;5020182;28;20227;-81
2023/01/21 09:06:23;;;;;;;1.65;1.55;;;22.70;57.40;;;;;;5017013;28;20272;-78
2023/01/21 09:08:49;;;;;;;2.38;2.17;;;22.70;57.40;;;;;;5015387;28;20550;-80
2023/01/21 09:11:17;;;;;;;1.92;1.83;;;22.70;57.80;;;;;;5015708;28;20203;-82
2023/01/21 09:13:44;;;;;;;2.60;2.40;;;22.80;56.60;;;;;;5015390;28;20705;-84
2023/01/21 09:16:13;;;;;;;2.15;1.95;;;22.80;56.40;;;;;;5014367;28;20207;-81
2023/01/21 09:18:42;;;;;;;2.20;2.00;;;22.80;56.30;;;;;;5014557;28;20210;-80
2023/01/21 09:21:09;;;;;;;2.30;2.10;;;22.80;56.60;;;;;;5017687;28;20631;-82
2023/01/21 09:23:37;;;;;;;2.00;1.85;;;22.70;57.00;;;;;;5015954;28;20234;-83
2023/01/21 09:26:06;;;;;;;7.18;5.75;;;22.80;57.20;;;;;;5018106;28;20641;-81
2023/01/21 09:28:35;;;;;;;9.73;5.90;;;22.80;55.00;;;;;;5017622;28;20203;-81
2023/01/21 09:31:03;;;;;;;4.10;3.78;;;22.80;55.30;;;;;;5016654;28;20204;-80
2023/01/21 09:33:32;;;;;;;7.03;4.13;;;22.70;56.60;;;;;;5016545;28;20203;-81
2023/01/21 09:36:03;;;;;;;4.75;3.50;;;22.60;56.40;;;;;;5018353;28;20222;-81
2023/01/21 09:38:31;;;;;;;4.53;3.03;;;22.60;56.40;;;;;;5015328;28;20666;-81
2023/01/21 09:41:04;;;;;;;4.85;3.63;;;22.60;56.30;;;;;;5015970;28;20264;-79
2023/01/21 09:43:35;;;;;;;4.28;3.50;;;22.60;56.50;;;;;;5014958;28;20206;-79
2023/01/21 09:46:05;;;;;;;3.65;3.22;;;22.50;56.30;;;;;;5018683;28;20212;-77
2023/01/21 09:48:36;;;;;;;4.70;3.33;;;22.30;56.40;;;;;;5017487;28;20279;-76
2023/01/21 09:51:08;;;;;;;4.45;2.88;;;22.30;56.50;;;;;;5018310;28;20179;-79
2023/01/21 09:53:47;;;;;;;7.75;3.38;;;22.30;57.30;;;;;;5013828;28;20203;-79
2023/01/21 09:56:21;;;;;;;3.22;2.75;;;22.40;57.40;;;;;;5016301;28;20187;-78
2023/01/21 09:58:52;;;;;;;3.28;2.97;;;22.50;57.90;;;;;;5019403;28;20347;-78
2023/01/21 10:01:26;;;;;;;3.53;2.40;;;22.60;57.40;;;;;;5019053;28;20211;-79
2023/01/21 10:03:56;;;;;;;9.07;2.63;;;22.60;57.40;;;;;;5019881;28;20207;-79
2023/01/21 10:06:34;;;;;;;3.22;2.92;;;22.60;57.40;;;;;;5020671;28;20199;-78
2023/01/21 10:09:21;;;;;;;3.30;2.83;;;22.60;57.50;;;;;;5017590;28;20211;-78
2023/01/21 10:12:06;;;;;;;2.13;1.93;;;22.60;57.60;;;;;;5019070;28;20526;-78
2023/01/21 10:14:53;;;;;;;3.13;2.70;;;22.60;57.60;;;;;;5019456;28;20477;-78
2023/01/21 10:17:29;;;;;;;2.25;2.05;;;22.50;57.60;;;;;;5013271;28;20220;-77
2023/01/21 10:20:05;;;;;;;2.47;2.33;;;22.50;57.80;;;;;;5020481;28;20206;-77
2023/01/21 10:22:34;;;;;;;2.45;2.25;;;22.40;57.80;;;;;;5020413;28;20438;-77
2023/01/21 10:25:06;;;;;;;14.13;2.80;;;22.40;58.00;;;;;;5018181;28;20206;-80
2023/01/21 10:27:37;;;;;;;2.60;2.40;;;22.30;58.10;;;;;;5018612;28;20206;-79
2023/01/21 10:30:22;;;;;;;4.05;2.28;;;22.20;58.30;;;;;;5019725;28;20479;-77
2023/01/21 10:32:52;;;;;;;3.30;2.47;;;22.10;58.90;;;;;;5016675;28;20206;-78
2023/01/21 10:35:23;;;;;;;2.80;2.10;;;22.00;59.00;;;;;;5018366;28;20468;-78
2023/01/21 10:37:59;;;;;;;2.72;2.28;;;21.90;59.10;;;;;;5016486;28;20540;-78
2023/01/21 10:40:43;;;;;;;7.38;2.60;;;21.90;59.20;;;;;;5019851;28;20667;-79
2023/01/21 10:43:17;;;;;;;3.55;2.58;;;21.90;59.10;;;;;;5019062;28;20613;-78
2023/01/21 10:45:54;;;;;;;2.45;2.17;;;21.90;59.10;;;;;;5015628;28;20207;-78
2023/01/21 10:48:32;;;;;;;3.25;2.45;;;22.00;59.00;;;;;;5015931;28;20217;-82
2023/01/21 10:51:05;;;;;;;2.55;2.35;;;22.20;59.10;;;;;;5017732;28;20210;-81
2023/01/21 10:53:40;;;;;;;3.10;2.50;;;22.50;58.80;;;;;;5018299;28;20251;-81
2023/01/21 10:56:16;;;;;;;2.88;2.33;;;22.70;58.40;;;;;;5018479;28;20485;-81
2023/01/21 10:58:46;;;;;;;4.85;2.40;;;22.80;57.80;;;;;;5019478;28;20643;-81
2023/01/21 11:01:20;;;;;;;5.38;3.13;;;22.80;57.50;;;;;;5019131;28;20694;-77
2023/01/21 11:03:49;;;;;;;5.43;2.50;;;22.80;57.40;;;;;;5021000;28;20206;-80
2023/01/21 11:06:19;;;;;;;6.85;2.20;;;22.90;57.30;;;;;;5019250;28;20455;-80
2023/01/21 11:08:50;;;;;;;2.40;2.20;;;23.00;57.20;;;;;;5019517;28;20280;-78
2023/01/21 11:11:25;;;;;;;2.30;2.10;;;23.00;57.10;;;;;;5018212;28;20465;-81
2023/01/21 11:13:52;;;;;;;2.53;2.33;;;23.00;57.10;;;;;;5019535;28;20458;-78
2023/01/21 11:16:31;;;;;;;5.30;2.53;;;23.10;57.00;;;;;;5020526;28;20216;-78
2023/01/21 11:18:59;;;;;;;4.30;2.83;;;23.10;57.00;;;;;;5017128;28;21003;-78
2023/01/21 11:21:26;;;;;;;2.60;2.40;;;23.10;57.00;;;;;;5020024;28;20206;-81
2023/01/21 11:23:56;;;;;;;2.80;2.60;;;23.20;57.20;;;;;;5019010;28;20203;-81
2023/01/21 11:26:26;;;;;;;3.75;2.72;;;23.10;56.90;;;;;;5022396;28;20222;-84
2023/01/21 11:29:12;;;;;;;2.50;2.30;;;23.10;56.80;;;;;;5020944;28;20202;-84
2023/01/21 11:31:40;;;;;;;3.10;2.20;;;23.00;56.90;;;;;;5017658;28;20582;-84
2023/01/21 11:34:12;;;;;;;2.20;2.00;;;22.90;56.80;;;;;;5019897;28;20858;-84
2023/01/21 11:36:54;;;;;;;2.73;2.50;;;22.90;57.20;;;;;;5021211;28;20212;-80
2023/01/21 11:39:25;;;;;;;2.07;1.93;;;23.00;57.30;;;;;;5020895;28;20458;-81
2023/01/21 11:41:52;;;;;;;2.90;2.70;;;23.10;57.40;;;;;;5021026;28;20478;-81
2023/01/21 11:44:22;;;;;;;3.10;2.90;;;23.10;57.50;;;;;;5019078;28;20322;-79
2023/01/21 11:46:49;;;;;;;1.73;1.60;;;23.00;57.60;;;;;;5019839;28;20201;-82
2023/01/21 11:49:26;;;;;;;2.60;2.30;;;23.10;57.70;;;;;;5019338;28;20206;-78
2023/01/21 11:52:14;;;;;;;2.25;2.05;;;23.10;57.70;;;;;;5019628;28;20199;-80
2023/01/21 11:54:43;;;;;;;2.45;2.25;;;23.10;57.80;;;;;;5017650;28;20226;-80
2023/01/21 11:57:26;;;;;;;2.30;2.10;;;23.20;57.80;;;;;;5018085;28;20203;-80
2023/01/21 11:59:57;;;;;;;2.65;2.25;;;23.20;57.90;;;;;;5018544;28;20462;-79
2023/01/21 12:02:28;;;;;;;2.30;2.10;;;23.20;57.90;;;;;;5017486;28;20206;-79
2023/01/21 12:05:00;;;;;;;2.00;1.80;;;23.20;58.00;;;;;;5018791;28;20210;-80
2023/01/21 12:07:31;;;;;;;2.47;2.27;;;23.10;58.10;;;;;;5018930;28;20212;-81
2023/01/21 12:10:08;;;;;;;2.43;2.23;;;23.10;58.10;;;;;;5016557;28;20460;-79
2023/01/21 12:12:52;;;;;;;2.03;1.92;;;23.20;58.10;;;;;;5019231;28;20930;-83
2023/01/21 12:15:29;;;;;;;2.10;1.90;;;23.30;58.10;;;;;;5017615;28;20248;-81
2023/01/21 12:18:08;;;;;;;1.70;1.60;;;23.30;58.10;;;;;;5018573;28;20214;-80
2023/01/21 12:20:40;;;;;;;2.20;2.00;;;23.20;58.00;;;;;;5019856;28;20476;-82
2023/01/21 12:23:21;;;;;;;2.30;2.10;;;23.30;58.20;;;;;;5018364;28;20211;-81
2023/01/21 12:25:57;;;;;;;2.00;1.80;;;23.30;58.20;;;;;;5019541;28;20188;-81
2023/01/21 12:28:51;;;;;;;1.92;1.83;;;23.30;58.20;;;;;;5021360;28;20198;-82
2023/01/21 12:31:26;;;;;;;2.20;2.00;;;23.30;58.20;;;;;;5017105;28;20197;-81
2023/01/21 12:33:59;;;;;;;2.10;1.90;;;23.30;58.20;;;;;;5018900;28;20202;-82
2023/01/21 12:36:31;;;;;;;2.20;2.00;;;23.30;58.10;;;;;;5016723;28;20482;-82
2023/01/21 12:39:19;;;;;;;2.20;1.90;;;23.30;58.30;;;;;;5017639;28;20449;-81
2023/01/21 12:41:56;;;;;;;2.43;2.23;;;23.30;58.20;;;;;;5018777;28;20698;-81
2023/01/21 12:44:28;;;;;;;2.30;2.10;;;23.40;58.30;;;;;;5017546;28;20485;-81
2023/01/21 12:47:00;;;;;;;2.27;2.07;;;23.30;58.20;;;;;;5017897;28;20192;-82
2023/01/21 12:49:45;;;;;;;3.37;1.93;;;23.30;58.30;;;;;;5019103;28;20463;-81
2023/01/21 12:52:19;;;;;;;2.13;1.95;;;23.30;58.30;;;;;;5019405;28;20880;-81
2023/01/21 12:54:52;;;;;;;1.90;1.80;;;23.30;58.30;;;;;;5017849;28;20195;-82
2023/01/21 12:57:28;;;;;;;2.10;2.00;;;23.30;58.40;;;;;;5020772;28;20199;-84
2023/01/21 13:00:00;;;;;;;2.60;1.70;;;23.30;58.30;;;;;;5019175;28;20453;-84
2023/01/21 13:02:33;;;;;;;2.10;1.90;;;23.30;58.30;;;;;;5017576;28;20467;-84
2023/01/21 13:05:06;;;;;;;2.80;1.88;;;23.30;58.40;;;;;;5017969;28;20847;-84
2023/01/21 13:07:45;;;;;;;2.10;1.90;;;23.30;58.50;;;;;;5015828;28;20231;-81
2023/01/21 13:10:21;;;;;;;2.07;1.83;;;23.30;58.50;;;;;;5016114;28;20473;-85
2023/01/21 13:12:55;;;;;;;1.77;1.67;;;23.30;58.50;;;;;;5019966;28;20674;-83